Time;durP1;ratioP1;P1;durP2;ratioP2;P2;SDS_P1;SDS_P2;PMS_P1;PMS_P2;Temp;Humidity;BMP_temperature;BMP_pressure;BME280_temperature;BME280_humidity;BME280_pressure;Samples;Min_cycle;Max_cycle;Signal;HPM_P1;HPM_P2
2023/07/28 00:02:14;;;;;;;;;;;;;;;;;;5083645;27;90181;-75
2023/07/28 00:04:40;;;;;;;;;;;;;;;;;;5084239;27;89268;-76
2023/07/28 00:07:05;;;;;;;;;;;;;;;;;;5072788;27;89695;-75
2023/07/28 00:09:30;;;;;;;;;;;;;;;;;;5077612;27;89579;-75
2023/07/28 00:11:58;;;;;;;;;;;;;;;;;;5080680;27;89570;-76
2023/07/28 00:17:30;;;;;;;;;;;;;;;;;;5073787;27;90339;-74
2023/07/28 00:19:55;;;;;;;;;;;;;;;;;;5077095;27;89589;-73
2023/07/28 00:22:20;;;;;;;;;;;;;;;;;;5087225;27;89211;-73
2023/07/28 00:24:45;;;;;;;;;;;;;;;;;;5078024;27;89211;-72
2023/07/28 00:27:12;;;;;;;;;;;;;;;;;;5078684;27;89595;-73
2023/07/28 00:29:38;;;;;;;;;;;;;;;;;;5075747;27;89974;-74
2023/07/28 00:32:03;;;;;;;;;;;;;;;;;;5076947;27;89610;-75
2023/07/28 00:34:28;;;;;;;;;;;;;;;;;;5075201;27;90598;-74
2023/07/28 00:36:53;;;;;;;;;;;;;;;;;;5080954;27;89347;-74
2023/07/28 00:39:19;;;;;;;;;;;;;;;;;;5080590;27;89510;-72
2023/07/28 00:41:45;;;;;;;;;;;;;;;;;;5079091;27;89535;-74
2023/07/28 00:44:10;;;;;;;;;;;;;;;;;;5080760;27;89139;-78
2023/07/28 00:46:35;;;;;;;;;;;;;;;;;;5082773;27;89346;-77
2023/07/28 00:49:03;;;;;;;;;;;;;;;;;;5084185;27;89252;-73
2023/07/28 00:51:28;;;;;;;;;;;;;;;;;;5078879;27;89435;-73
2023/07/28 00:53:53;;;;;;;;;;;;;;;;;;5076897;27;89623;-75
2023/07/28 00:56:19;;;;;;;;;;;;;;;;;;5074619;27;89393;-74
2023/07/28 00:58:44;;;;;;;;;;;;;;;;;;5080520;27;89478;-72
2023/07/28 01:01:09;;;;;;;;;;;;;;;;;;5073866;27;89743;-72
2023/07/28 01:03:34;;;;;;;;;;;;;;;;;;5083096;27;89731;-75
2023/07/28 01:06:10;;;;;;;;;;;;;;;;;;5081665;27;90133;-77
2023/07/28 01:09:03;;;;;;;;;;;;;;;;;;5074141;27;89945;-75
2023/07/28 01:11:28;;;;;;;;;;;;;;;;;;5061711;27;89481;-74
2023/07/28 01:13:54;;;;;;;;;;;;;;;;;;5084114;27;89364;-73
2023/07/28 01:16:19;;;;;;;;;;;;;;;;;;5083616;27;89458;-72
2023/07/28 01:18:44;;;;;;;;;;;;;;;;;;5079981;27;89278;-76
2023/07/28 01:21:13;;;;;;;;;;;;;;;;;;5076002;27;89048;-76
2023/07/28 01:23:44;;;;;;;;;;;;;;;;;;5080404;27;89982;-75
2023/07/28 01:26:10;;;;;;;;;;;;;;;;;;5075682;27;88991;-73
2023/07/28 01:28:36;;;;;;;;;;;;;;;;;;5086316;27;89532;-73
2023/07/28 01:31:05;;;;;;;;;;;;;;;;;;5074252;27;91136;-72
2023/07/28 01:33:31;;;;;;;;;;;;;;;;;;5079029;27;90179;-72
2023/07/28 01:35:56;;;;;;;;;;;;;;;;;;5083629;27;90311;-77
2023/07/28 01:38:21;;;;;;;;;;;;;;;;;;5081592;27;89627;-73
2023/07/28 01:40:47;;;;;;;;;;;;;;;;;;5083563;27;90303;-74
2023/07/28 01:43:12;;;;;;;;;;;;;;;;;;5083736;27;89066;-73
2023/07/28 01:45:38;;;;;;;;;;;;;;;;;;5081064;27;90082;-72
2023/07/28 01:48:03;;;;;;;;;;;;;;;;;;5081057;27;89591;-73
2023/07/28 01:50:28;;;;;;;;;;;;;;;;;;5086049;27;89025;-76
2023/07/28 01:52:53;;;;;;;;;;;;;;;;;;5079286;27;89747;-74
2023/07/28 01:55:19;;;;;;;;;;;;;;;;;;5081291;27;89374;-72
2023/07/28 01:57:54;;;;;;;;;;;;;;;;;;5079382;27;89430;-77
2023/07/28 02:00:19;;;;;;;;;;;;;;;;;;5078765;27;89539;-76
2023/07/28 02:02:45;;;;;;;;;;;;;;;;;;5080840;27;89481;-76
2023/07/28 02:05:10;;;;;;;;;;;;;;;;;;5083190;27;89561;-73
2023/07/28 02:07:35;;;;;;;;;;;;;;;;;;5079411;27;89406;-73
2023/07/28 02:10:01;;;;;;;;;;;;;;;;;;5083001;27;89603;-72
2023/07/28 02:12:26;;;;;;;;;;;;;;;;;;5080123;27;89493;-75
2023/07/28 02:14:51;;;;;;;;;;;;;;;;;;5073605;27;89208;-74
2023/07/28 02:17:16;;;;;;;;;;;;;;;;;;5081543;27;89496;-76
2023/07/28 02:19:42;;;;;;;;;;;;;;;;;;5074388;27;89190;-77
2023/07/28 02:22:07;;;;;;;;;;;;;;;;;;5076914;27;89350;-77
2023/07/28 02:24:32;;;;;;;;;;;;;;;;;;5078784;27;89584;-72
2023/07/28 02:26:58;;;;;;;;;;;;;;;;;;5078128;27;89062;-75
2023/07/28 02:29:23;;;;;;;;;;;;;;;;;;5075970;27;90288;-75
2023/07/28 02:31:48;;;;;;;;;;;;;;;;;;5082988;27;89999;-75
2023/07/28 02:34:13;;;;;;;;;;;;;;;;;;5080822;27;89490;-73
2023/07/28 02:36:39;;;;;;;;;;;;;;;;;;5079807;27;90799;-75
2023/07/28 02:39:04;;;;;;;;;;;;;;;;;;5071486;27;90094;-74
2023/07/28 02:41:29;;;;;;;;;;;;;;;;;;5078959;27;89535;-74
2023/07/28 02:43:54;;;;;;;;;;;;;;;;;;5082046;27;89483;-75
2023/07/28 02:46:20;;;;;;;;;;;;;;;;;;5078627;27;92669;-75
2023/07/28 02:48:45;;;;;;;;;;;;;;;;;;5080973;27;89169;-75
2023/07/28 02:51:10;;;;;;;;;;;;;;;;;;5077533;27;89952;-76
2023/07/28 02:53:35;;;;;;;;;;;;;;;;;;5082362;27;89862;-75
2023/07/28 02:56:01;;;;;;;;;;;;;;;;;;5083664;27;89651;-75
2023/07/28 02:58:26;;;;;;;;;;;;;;;;;;5075247;27;89410;-77
2023/07/28 03:00:51;;;;;;;;;;;;;;;;;;5073022;27;89720;-72
2023/07/28 03:03:16;;;;;;;;;;;;;;;;;;5078606;27;90112;-73
2023/07/28 03:05:42;;;;;;;;;;;;;;;;;;5080045;27;89156;-73
2023/07/28 03:08:07;;;;;;;;;;;;;;;;;;5072301;27;88996;-76
2023/07/28 03:10:33;;;;;;;;;;;;;;;;;;5080295;27;89508;-74
2023/07/28 03:12:58;;;;;;;;;;;;;;;;;;5073693;27;91214;-75
2023/07/28 03:15:23;;;;;;;;;;;;;;;;;;5076797;27;89547;-74
2023/07/28 03:17:53;;;;;;;;;;;;;;;;;;5076637;27;90867;-75
2023/07/28 03:20:18;;;;;;;;;;;;;;;;;;5074336;27;90478;-74
2023/07/28 03:22:43;;;;;;;;;;;;;;;;;;5073544;27;89976;-74
2023/07/28 03:25:09;;;;;;;;;;;;;;;;;;5076603;27;91061;-74
2023/07/28 03:27:34;;;;;;;;;;;;;;;;;;5076669;27;89258;-76
2023/07/28 03:29:59;;;;;;;;;;;;;;;;;;5072308;27;89548;-74
2023/07/28 03:32:24;;;;;;;;;;;;;;;;;;5078823;27;89490;-73
2023/07/28 03:34:50;;;;;;;;;;;;;;;;;;5075811;27;89527;-75
2023/07/28 03:37:15;;;;;;;;;;;;;;;;;;5079927;27;89912;-73
2023/07/28 03:39:40;;;;;;;;;;;;;;;;;;5074631;27;89356;-74
2023/07/28 03:42:06;;;;;;;;;;;;;;;;;;5072149;27;89340;-74
2023/07/28 03:44:31;;;;;;;;;;;;;;;;;;5076081;27;90345;-72
2023/07/28 03:46:56;;;;;;;;;;;;;;;;;;5083289;27;89540;-75
2023/07/28 03:49:21;;;;;;;;;;;;;;;;;;5071794;27;89484;-75
2023/07/28 03:51:47;;;;;;;;;;;;;;;;;;5077111;27;89648;-73
2023/07/28 03:54:12;;;;;;;;;;;;;;;;;;5075239;27;89499;-74
2023/07/28 03:56:37;;;;;;;;;;;;;;;;;;5076877;27;89462;-75
2023/07/28 03:59:03;;;;;;;;;;;;;;;;;;5076898;27;89619;-75
2023/07/28 04:01:28;;;;;;;;;;;;;;;;;;5072129;27;89613;-76
2023/07/28 04:03:53;;;;;;;;;;;;;;;;;;5073691;27;90143;-75
2023/07/28 04:06:18;;;;;;;;;;;;;;;;;;5074416;27;89699;-74
2023/07/28 04:08:44;;;;;;;;;;;;;;;;;;5074103;27;90042;-76
2023/07/28 04:11:09;;;;;;;;;;;;;;;;;;5082100;27;89845;-74
2023/07/28 04:13:34;;;;;;;;;;;;;;;;;;5076722;27;89053;-72
2023/07/28 04:16:00;;;;;;;;;;;;;;;;;;5075056;27;90715;-74
2023/07/28 04:18:25;;;;;;;;;;;;;;;;;;5081260;27;89905;-75
2023/07/28 04:20:51;;;;;;;;;;;;;;;;;;5073350;27;89851;-73
2023/07/28 04:23:16;;;;;;;;;;;;;;;;;;5079633;27;89324;-74
2023/07/28 04:25:41;;;;;;;;;;;;;;;;;;5067622;27;90435;-75
2023/07/28 04:28:06;;;;;;;;;;;;;;;;;;5079206;27;89869;-76
2023/07/28 04:30:31;;;;;;;;;;;;;;;;;;5078105;27;89401;-74
2023/07/28 04:32:57;;;;;;;;;;;;;;;;;;5075076;27;89704;-76
2023/07/28 04:35:22;;;;;;;;;;;;;;;;;;5074298;27;89472;-74
2023/07/28 04:37:47;;;;;;;;;;;;;;;;;;5073918;27;89481;-74
2023/07/28 04:40:13;;;;;;;;;;;;;;;;;;5077302;27;89402;-73
2023/07/28 04:42:38;;;;;;;;;;;;;;;;;;5078945;27;90754;-76
2023/07/28 04:45:04;;;;;;;;;;;;;;;;;;5075718;27;89953;-73
2023/07/28 04:47:29;;;;;;;;;;;;;;;;;;5078138;27;89755;-73
2023/07/28 04:49:54;;;;;;;;;;;;;;;;;;5076292;27;89528;-72
2023/07/28 04:52:20;;;;;;;;;;;;;;;;;;5073677;27;89070;-74
2023/07/28 04:54:45;;;;;;;;;;;;;;;;;;5076107;27;89068;-74
2023/07/28 04:57:10;;;;;;;;;;;;;;;;;;5075505;27;90504;-73
2023/07/28 04:59:35;;;;;;;;;;;;;;;;;;5078711;27;89668;-73
2023/07/28 05:02:00;;;;;;;;;;;;;;;;;;5075767;27;89549;-74
2023/07/28 05:04:26;;;;;;;;;;;;;;;;;;5081274;27;89733;-73
2023/07/28 05:06:51;;;;;;;;;;;;;;;;;;5075185;27;89744;-74
2023/07/28 05:09:16;;;;;;;;;;;;;;;;;;5078553;27;89940;-73
2023/07/28 05:11:42;;;;;;;;;;;;;;;;;;5081357;27;90192;-74
2023/07/28 05:14:08;;;;;;;;;;;;;;;;;;5078640;27;89664;-74
2023/07/28 05:16:33;;;;;;;;;;;;;;;;;;5080169;27;90216;-73
2023/07/28 05:18:59;;;;;;;;;;;;;;;;;;5080463;27;91681;-74
2023/07/28 05:21:24;;;;;;;;;;;;;;;;;;5076419;27;92610;-74
2023/07/28 05:23:50;;;;;;;;;;;;;;;;;;5081874;27;90350;-74
2023/07/28 05:26:15;;;;;;;;;;;;;;;;;;5085097;27;89333;-74
2023/07/28 05:28:40;;;;;;;;;;;;;;;;;;5082093;27;89887;-74
2023/07/28 05:31:06;;;;;;;;;;;;;;;;;;5081464;27;89368;-73
2023/07/28 05:33:31;;;;;;;;;;;;;;;;;;5077358;27;90414;-73
2023/07/28 05:36:03;;;;;;;;;;;;;;;;;;5076963;27;89685;-73
2023/07/28 05:38:28;;;;;;;;;;;;;;;;;;5079351;27;89108;-74
2023/07/28 05:40:57;;;;;;;;;;;;;;;;;;5081281;27;90862;-73
2023/07/28 05:43:22;;;;;;;;;;;;;;;;;;5077047;27;90678;-73
2023/07/28 05:45:47;;;;;;;;;;;;;;;;;;5081019;27;90515;-73
2023/07/28 05:48:13;;;;;;;;;;;;;;;;;;5084676;27;91199;-73
2023/07/28 05:50:38;;;;;;;;;;;;;;;;;;5076561;27;90463;-73
2023/07/28 05:53:04;;;;;;;;;;;;;;;;;;5076126;27;90104;-73
2023/07/28 05:55:29;;;;;;;;;;;;;;;;;;5078697;27;90184;-73
2023/07/28 05:57:54;;;;;;;;;;;;;;;;;;5074737;27;89216;-73
2023/07/28 06:00:19;;;;;;;;;;;;;;;;;;5080328;27;89438;-73
2023/07/28 06:02:45;;;;;;;;;;;;;;;;;;5075755;27;90931;-73
2023/07/28 06:05:10;;;;;;;;;;;;;;;;;;5078118;27;91111;-74
2023/07/28 06:07:35;;;;;;;;;;;;;;;;;;5081621;27;90178;-66
2023/07/28 06:10:00;;;;;;;;;;;;;;;;;;5079078;27;90049;-65
2023/07/28 06:12:26;;;;;;;;;;;;;;;;;;5081039;27;89393;-65
2023/07/28 06:14:51;;;;;;;;;;;;;;;;;;5075711;27;90354;-67
2023/07/28 06:17:16;;;;;;;;;;;;;;;;;;5074764;27;89779;-66
2023/07/28 06:19:41;;;;;;;;;;;;;;;;;;5076536;27;89523;-65
2023/07/28 06:22:07;;;;;;;;;;;;;;;;;;5080070;27;91803;-69
2023/07/28 06:24:32;;;;;;;;;;;;;;;;;;5078360;27;89433;-71
2023/07/28 06:26:57;;;;;;;;;;;;;;;;;;5078586;27;89508;-70
2023/07/28 06:29:22;;;;;;;;;;;;;;;;;;5081269;27;89119;-68
2023/07/28 06:31:47;;;;;;;;;;;;;;;;;;5076706;27;89528;-68
2023/07/28 06:34:13;;;;;;;;;;;;;;;;;;5078490;27;89317;-67
2023/07/28 06:36:38;;;;;;;;;;;;;;;;;;5076380;27;90767;-67
2023/07/28 06:39:04;;;;;;;;;;;;;;;;;;5071399;27;91491;-67
2023/07/28 06:41:29;;;;;;;;;;;;;;;;;;5078812;27;90000;-68
2023/07/28 06:43:54;;;;;;;;;;;;;;;;;;5082545;27;89124;-67
2023/07/28 06:46:19;;;;;;;;;;;;;;;;;;5080427;27;90126;-69
2023/07/28 06:48:45;;;;;;;;;;;;;;;;;;5075944;27;90074;-67
2023/07/28 06:51:10;;;;;;;;;;;;;;;;;;5075660;27;89641;-69
2023/07/28 06:53:36;;;;;;;;;;;;;;;;;;5074323;27;90469;-65
2023/07/28 06:56:01;;;;;;;;;;;;;;;;;;5076093;27;89964;-64
2023/07/28 06:58:26;;;;;;;;;;;;;;;;;;5076602;27;89398;-63
2023/07/28 07:00:51;;;;;;;;;;;;;;;;;;5072878;27;89747;-66
2023/07/28 07:03:17;;;;;;;;;;;;;;;;;;5078593;27;90400;-64
2023/07/28 07:05:43;;;;;;;;;;;;;;;;;;5074868;27;91159;-65
2023/07/28 07:08:08;;;;;;;;;;;;;;;;;;5076015;27;91935;-63
2023/07/28 07:10:34;;;;;;;;;;;;;;;;;;5083404;27;89630;-67
2023/07/28 07:12:59;;;;;;;;;;;;;;;;;;5073987;27;91626;-68
2023/07/28 07:15:24;;;;;;;;;;;;;;;;;;5075282;27;89632;-65
2023/07/28 07:17:50;;;;;;;;;;;;;;;;;;5078310;27;90765;-69
2023/07/28 07:20:15;;;;;;;;;;;;;;;;;;5081726;27;89248;-65
2023/07/28 07:22:41;;;;;;;;;;;;;;;;;;5075244;27;89905;-66
2023/07/28 07:25:07;;;;;;;;;;;;;;;;;;5077047;27;90523;-66
2023/07/28 07:27:32;;;;;;;;;;;;;;;;;;5077267;27;89808;-66
2023/07/28 07:29:57;;;;;;;;;;;;;;;;;;5073144;27;89839;-66
2023/07/28 07:32:22;;;;;;;;;;;;;;;;;;5083495;27;89509;-65
2023/07/28 07:34:48;;;;;;;;;;;;;;;;;;5073713;27;89120;-71
2023/07/28 07:37:13;;;;;;;;;;;;;;;;;;5076502;27;90659;-65
2023/07/28 07:39:40;;;;;;;;;;;;;;;;;;5078675;27;90637;-65
2023/07/28 07:42:06;;;;;;;;;;;;;;;;;;5077656;27;90864;-64
2023/07/28 07:44:31;;;;;;;;;;;;;;;;;;5081570;27;89721;-71
2023/07/28 07:46:59;;;;;;;;;;;;;;;;;;5075670;27;90654;-64
2023/07/28 07:49:24;;;;;;;;;;;;;;;;;;5076725;27;89230;-67
2023/07/28 07:51:49;;;;;;;;;;;;;;;;;;5079289;27;91016;-66
2023/07/28 07:54:18;;;;;;;;;;;;;;;;;;5081929;27;90036;-70
2023/07/28 07:56:43;;;;;;;;;;;;;;;;;;5078800;27;90880;-65
2023/07/28 07:59:08;;;;;;;;;;;;;;;;;;5071744;27;90915;-65
2023/07/28 08:01:33;;;;;;;;;;;;;;;;;;5073202;27;90343;-65
2023/07/28 08:03:59;;;;;;;;;;;;;;;;;;5073288;27;89044;-64
2023/07/28 08:06:24;;;;;;;;;;;;;;;;;;5077597;27;89861;-67
2023/07/28 08:08:51;;;;;;;;;;;;;;;;;;5079878;27;89664;-64
2023/07/28 08:11:17;;;;;;;;;;;;;;;;;;5078213;27;90225;-65
2023/07/28 08:13:43;;;;;;;;;;;;;;;;;;5077099;27;89560;-66
2023/07/28 08:16:08;;;;;;;;;;;;;;;;;;5079084;27;89711;-68
2023/07/28 08:18:34;;;;;;;;;;;;;;;;;;5074803;27;89711;-67
2023/07/28 08:20:59;;;;;;;;;;;;;;;;;;5072827;27;89869;-67
2023/07/28 08:23:25;;;;;;;;;;;;;;;;;;5071259;27;89823;-66
2023/07/28 08:25:50;;;;;;;;;;;;;;;;;;5074422;27;90318;-67
2023/07/28 08:28:17;;;;;;;;;;;;;;;;;;5072792;27;89804;-66
2023/07/28 08:30:42;;;;;;;;;;;;;;;;;;5074283;27;89770;-66
2023/07/28 08:33:07;;;;;;;;;;;;;;;;;;5077341;27;89656;-65
2023/07/28 08:35:32;;;;;;;;;;;;;;;;;;5076481;27;90163;-65
2023/07/28 08:37:57;;;;;;;;;;;;;;;;;;5076316;27;89414;-66
2023/07/28 08:40:24;;;;;;;;;;;;;;;;;;5077579;27;90666;-66
2023/07/28 08:42:49;;;;;;;;;;;;;;;;;;5083268;27;90076;-70
2023/07/28 08:45:15;;;;;;;;;;;;;;;;;;5077424;27;90202;-65
2023/07/28 08:47:40;;;;;;;;;;;;;;;;;;5079955;27;89113;-65
2023/07/28 08:50:08;;;;;;;;;;;;;;;;;;5079828;27;89662;-66
2023/07/28 08:52:33;;;;;;;;;;;;;;;;;;5079780;27;89849;-66
2023/07/28 08:54:59;;;;;;;;;;;;;;;;;;5081091;27;89167;-66
2023/07/28 08:57:24;;;;;;;;;;;;;;;;;;5083849;27;90484;-66
2023/07/28 08:59:49;;;;;;;;;;;;;;;;;;5079144;27;89165;-66
2023/07/28 09:02:16;;;;;;;;;;;;;;;;;;5078612;27;90997;-64
2023/07/28 09:04:41;;;;;;;;;;;;;;;;;;5077416;27;89208;-65
2023/07/28 09:07:07;;;;;;;;;;;;;;;;;;5079550;27;89628;-66
2023/07/28 09:09:33;;;;;;;;;;;;;;;;;;5082001;27;90807;-65
2023/07/28 09:11:59;;;;;;;;;;;;;;;;;;5075548;27;90082;-65
2023/07/28 09:14:24;;;;;;;;;;;;;;;;;;5074228;27;89204;-64
2023/07/28 09:16:50;;;;;;;;;;;;;;;;;;5076917;27;90713;-65
2023/07/28 09:19:15;;;;;;;;;;;;;;;;;;5085801;27;90206;-67
2023/07/28 09:21:43;;;;;;;;;;;;;;;;;;5078690;27;90352;-69
2023/07/28 09:24:13;;;;;;;;;;;;;;;;;;5078117;27;90616;-65
2023/07/28 09:26:41;;;;;;;;;;;;;;;;;;5080221;27;90847;-65
2023/07/28 09:29:23;;;;;;;;;;;;;;;;;;5082289;27;89771;-66
2023/07/28 09:31:48;;;;;;;;;;;;;;;;;;5079417;27;89731;-66
2023/07/28 09:34:26;;;;;;;;;;;;;;;;;;5077865;27;90455;-65
2023/07/28 09:36:55;;;;;;;;;;;;;;;;;;5077886;27;89654;-64
2023/07/28 09:39:21;;;;;;;;;;;;;;;;;;5079284;27;89133;-65
2023/07/28 09:41:46;;;;;;;;;;;;;;;;;;5084354;27;89443;-65
2023/07/28 09:44:12;;;;;;;;;;;;;;;;;;5072660;27;89462;-65
2023/07/28 09:46:47;;;;;;;;;;;;;;;;;;5076772;27;90765;-65
2023/07/28 09:49:14;;;;;;;;;;;;;;;;;;5075409;27;89693;-66
2023/07/28 09:51:40;;;;;;;;;;;;;;;;;;5080517;27;89868;-66
2023/07/28 09:54:11;;;;;;;;;;;;;;;;;;5080187;27;89706;-66
2023/07/28 09:56:37;;;;;;;;;;;;;;;;;;5083737;27;89544;-66
2023/07/28 09:59:03;;;;;;;;;;;;;;;;;;5078321;27;90870;-66
2023/07/28 10:01:29;;;;;;;;;;;;;;;;;;5080906;27;90892;-68
2023/07/28 10:03:54;;;;;;;;;;;;;;;;;;5080964;27;89166;-69
2023/07/28 10:06:22;;;;;;;;;;;;;;;;;;5079590;27;89671;-66
2023/07/28 10:08:48;;;;;;;;;;;;;;;;;;5081371;27;90779;-66
2023/07/28 10:11:14;;;;;;;;;;;;;;;;;;5082122;27;90503;-71
2023/07/28 10:13:43;;;;;;;;;;;;;;;;;;5080506;27;89396;-65
2023/07/28 10:16:09;;;;;;;;;;;;;;;;;;5084333;27;90124;-66
2023/07/28 10:18:34;;;;;;;;;;;;;;;;;;5079323;27;90269;-64
2023/07/28 10:21:07;;;;;;;;;;;;;;;;;;5079026;27;90626;-64
2023/07/28 10:23:34;;;;;;;;;;;;;;;;;;5076785;27;90724;-64
2023/07/28 10:26:00;;;;;;;;;;;;;;;;;;5073578;27;91001;-64
2023/07/28 10:28:32;;;;;;;;;;;;;;;;;;5076642;27;89901;-64
2023/07/28 10:30:58;;;;;;;;;;;;;;;;;;5076444;27;89056;-64
2023/07/28 10:33:27;;;;;;;;;;;;;;;;;;5078335;27;90155;-64
2023/07/28 10:35:53;;;;;;;;;;;;;;;;;;5070323;27;90716;-65
2023/07/28 10:38:30;;;;;;;;;;;;;;;;;;5072391;27;90324;-64
2023/07/28 10:41:05;;;;;;;;;;;;;;;;;;5072107;27;89805;-64
2023/07/28 10:43:30;;;;;;;;;;;;;;;;;;5074803;27;90897;-64
2023/07/28 10:45:55;;;;;;;;;;;;;;;;;;5083796;27;89700;-65
2023/07/28 10:48:22;;;;;;;;;;;;;;;;;;5081780;27;89521;-64
2023/07/28 10:50:49;;;;;;;;;;;;;;;;;;5074254;27;89446;-64
2023/07/28 10:53:14;;;;;;;;;;;;;;;;;;5077984;27;89089;-64
2023/07/28 10:55:40;;;;;;;;;;;;;;;;;;5076734;27;89545;-64
2023/07/28 10:58:06;;;;;;;;;;;;;;;;;;5079000;27;89785;-65
2023/07/28 11:00:31;;;;;;;;;;;;;;;;;;5077516;27;89669;-65
2023/07/28 11:02:57;;;;;;;;;;;;;;;;;;5074610;27;90661;-64
2023/07/28 11:05:26;;;;;;;;;;;;;;;;;;5079362;27;90224;-64
2023/07/28 11:07:54;;;;;;;;;;;;;;;;;;5079275;27;89655;-64
2023/07/28 11:10:20;;;;;;;;;;;;;;;;;;5077258;27;91122;-64
2023/07/28 11:12:46;;;;;;;;;;;;;;;;;;5079123;27;88992;-64
2023/07/28 11:15:13;;;;;;;;;;;;;;;;;;5077847;27;89996;-64
2023/07/28 11:17:43;;;;;;;;;;;;;;;;;;5076808;27;91100;-65
2023/07/28 11:20:15;;;;;;;;;;;;;;;;;;5078304;27;90336;-65
2023/07/28 11:22:41;;;;;;;;;;;;;;;;;;5080146;27;90906;-64
2023/07/28 11:25:09;;;;;;;;;;;;;;;;;;5079788;27;90330;-64
2023/07/28 11:27:34;;;;;;;;;;;;;;;;;;5079746;27;89598;-65
2023/07/28 11:30:00;;;;;;;;;;;;;;;;;;5082233;27;89438;-64
2023/07/28 11:32:26;;;;;;;;;;;;;;;;;;5079261;27;89270;-64
2023/07/28 11:34:51;;;;;;;;;;;;;;;;;;5079421;27;89448;-64
2023/07/28 11:37:16;;;;;;;;;;;;;;;;;;5076106;27;89032;-65
2023/07/28 11:39:41;;;;;;;;;;;;;;;;;;5078215;27;89566;-64
2023/07/28 11:42:07;;;;;;;;;;;;;;;;;;5078258;27;89722;-64
2023/07/28 11:44:32;;;;;;;;;;;;;;;;;;5078194;27;89745;-65
2023/07/28 11:46:57;;;;;;;;;;;;;;;;;;5077852;27;89380;-65
2023/07/28 11:49:22;;;;;;;;;;;;;;;;;;5079230;27;89737;-64
2023/07/28 11:51:49;;;;;;;;;;;;;;;;;;5076711;27;89685;-64
2023/07/28 11:54:14;;;;;;;;;;;;;;;;;;5076482;27;89180;-64
2023/07/28 11:56:41;;;;;;;;;;;;;;;;;;5077765;27;88996;-64
2023/07/28 11:59:06;;;;;;;;;;;;;;;;;;5075465;27;89346;-64
2023/07/28 12:01:31;;;;;;;;;;;;;;;;;;5081266;27;89756;-66
2023/07/28 12:03:58;;;;;;;;;;;;;;;;;;5075946;27;89428;-64
2023/07/28 12:06:24;;;;;;;;;;;;;;;;;;5079254;27;89315;-65
2023/07/28 12:08:49;;;;;;;;;;;;;;;;;;5078516;27;89659;-64
2023/07/28 12:11:14;;;;;;;;;;;;;;;;;;5074312;27;89219;-65
2023/07/28 12:13:52;;;;;;;;;;;;;;;;;;5081306;27;89484;-64
2023/07/28 12:16:38;;;;;;;;;;;;;;;;;;5076047;27;89626;-65
2023/07/28 12:19:04;;;;;;;;;;;;;;;;;;5073513;27;90776;-64
2023/07/28 12:21:31;;;;;;;;;;;;;;;;;;5075660;27;90833;-65
2023/07/28 12:23:56;;;;;;;;;;;;;;;;;;5074718;27;90342;-65
2023/07/28 12:26:21;;;;;;;;;;;;;;;;;;5074428;27;89087;-65
2023/07/28 12:28:46;;;;;;;;;;;;;;;;;;5074083;27;90980;-65
2023/07/28 12:31:12;;;;;;;;;;;;;;;;;;5074552;27;89089;-65
2023/07/28 12:33:37;;;;;;;;;;;;;;;;;;5076668;27;90301;-65
2023/07/28 12:36:02;;;;;;;;;;;;;;;;;;5079614;27;89935;-65
2023/07/28 12:38:28;;;;;;;;;;;;;;;;;;5074872;27;88998;-64
2023/07/28 12:40:54;;;;;;;;;;;;;;;;;;5074310;27;89818;-65
2023/07/28 12:43:20;;;;;;;;;;;;;;;;;;5074327;27;90356;-64
2023/07/28 12:45:45;;;;;;;;;;;;;;;;;;5080119;27;89899;-64
2023/07/28 12:48:10;;;;;;;;;;;;;;;;;;5075878;27;90092;-65
2023/07/28 12:50:35;;;;;;;;;;;;;;;;;;5074803;27;88946;-64
2023/07/28 12:53:00;;;;;;;;;;;;;;;;;;5077149;27;89590;-64
2023/07/28 12:55:27;;;;;;;;;;;;;;;;;;5082418;27;89549;-68
2023/07/28 12:57:53;;;;;;;;;;;;;;;;;;5075266;27;89726;-65
2023/07/28 13:00:18;;;;;;;;;;;;;;;;;;5075237;27;90882;-64
2023/07/28 13:02:44;;;;;;;;;;;;;;;;;;5077702;27;90278;-65
2023/07/28 13:05:10;;;;;;;;;;;;;;;;;;5079919;27;89217;-65
2023/07/28 13:07:35;;;;;;;;;;;;;;;;;;5078406;27;90847;-64
2023/07/28 13:10:01;;;;;;;;;;;;;;;;;;5078240;27;89385;-65
2023/07/28 13:12:26;;;;;;;;;;;;;;;;;;5079250;27;89941;-65
2023/07/28 13:14:51;;;;;;;;;;;;;;;;;;5076167;27;89683;-64
2023/07/28 13:17:16;;;;;;;;;;;;;;;;;;5073895;27;89774;-65
2023/07/28 13:19:41;;;;;;;;;;;;;;;;;;5074840;27;89627;-65
2023/07/28 13:22:07;;;;;;;;;;;;;;;;;;5079926;27;90547;-65
2023/07/28 13:24:32;;;;;;;;;;;;;;;;;;5079226;27;89729;-64
2023/07/28 13:26:57;;;;;;;;;;;;;;;;;;5080488;27;89668;-64
2023/07/28 13:29:22;;;;;;;;;;;;;;;;;;5078547;27;89893;-64
2023/07/28 13:31:47;;;;;;;;;;;;;;;;;;5076734;27;89439;-65
2023/07/28 13:34:13;;;;;;;;;;;;;;;;;;5074365;27;91106;-64
2023/07/28 13:36:38;;;;;;;;;;;;;;;;;;5076964;27;90466;-65
2023/07/28 13:39:03;;;;;;;;;;;;;;;;;;5083216;27;90971;-64
2023/07/28 13:41:28;;;;;;;;;;;;;;;;;;5076724;27;89983;-64
2023/07/28 13:43:54;;;;;;;;;;;;;;;;;;5076246;27;89130;-66
2023/07/28 13:46:19;;;;;;;;;;;;;;;;;;5079622;27;89544;-65
2023/07/28 13:48:44;;;;;;;;;;;;;;;;;;5077212;27;89196;-64
2023/07/28 13:51:09;;;;;;;;;;;;;;;;;;5075915;27;89037;-65
2023/07/28 13:53:35;;;;;;;;;;;;;;;;;;5077636;27;89263;-64
2023/07/28 13:56:00;;;;;;;;;;;;;;;;;;5079952;27;89745;-64
2023/07/28 13:58:25;;;;;;;;;;;;;;;;;;5074284;27;89743;-64
2023/07/28 14:00:50;;;;;;;;;;;;;;;;;;5076723;27;89694;-64
2023/07/28 14:03:16;;;;;;;;;;;;;;;;;;5077575;27;89273;-65
2023/07/28 14:05:41;;;;;;;;;;;;;;;;;;5077526;27;90681;-65
2023/07/28 14:08:06;;;;;;;;;;;;;;;;;;5080709;27;90150;-65
2023/07/28 14:10:32;;;;;;;;;;;;;;;;;;5076194;27;90693;-64
2023/07/28 14:12:57;;;;;;;;;;;;;;;;;;5083174;27;90975;-65
2023/07/28 14:15:22;;;;;;;;;;;;;;;;;;5076301;27;89458;-65
2023/07/28 14:17:48;;;;;;;;;;;;;;;;;;5076712;27;90432;-65
2023/07/28 14:20:13;;;;;;;;;;;;;;;;;;5076429;27;90611;-65
2023/07/28 14:22:38;;;;;;;;;;;;;;;;;;5078928;27;90287;-64
2023/07/28 14:25:04;;;;;;;;;;;;;;;;;;5078542;27;90518;-64
2023/07/28 14:27:29;;;;;;;;;;;;;;;;;;5074522;27;89860;-66
2023/07/28 14:29:54;;;;;;;;;;;;;;;;;;5075257;27;89318;-65
2023/07/28 14:32:19;;;;;;;;;;;;;;;;;;5081135;27;90078;-64
2023/07/28 14:34:45;;;;;;;;;;;;;;;;;;5076901;27;89387;-65
2023/07/28 14:37:11;;;;;;;;;;;;;;;;;;5071949;27;89411;-65
2023/07/28 14:39:36;;;;;;;;;;;;;;;;;;5075958;27;91042;-64
2023/07/28 14:42:01;;;;;;;;;;;;;;;;;;5082646;27;89121;-65
2023/07/28 14:44:27;;;;;;;;;;;;;;;;;;5078256;27;89524;-65
2023/07/28 14:46:52;;;;;;;;;;;;;;;;;;5077237;27;89365;-64
2023/07/28 14:49:17;;;;;;;;;;;;;;;;;;5078584;27;89642;-65
2023/07/28 14:51:42;;;;;;;;;;;;;;;;;;5074789;27;89146;-65
2023/07/28 14:54:07;;;;;;;;;;;;;;;;;;5079927;27;89237;-65
2023/07/28 14:56:33;;;;;;;;;;;;;;;;;;5080380;27;89118;-64
2023/07/28 14:59:00;;;;;;;;;;;;;;;;;;5074576;27;91508;-65
2023/07/28 15:01:25;;;;;;;;;;;;;;;;;;5077285;27;89324;-65
2023/07/28 15:03:51;;;;;;;;;;;;;;;;;;5081163;27;89391;-64
2023/07/28 15:06:16;;;;;;;;;;;;;;;;;;5075129;27;89691;-65
2023/07/28 15:08:41;;;;;;;;;;;;;;;;;;5074881;27;89609;-65
2023/07/28 15:11:07;;;;;;;;;;;;;;;;;;5074142;27;92357;-65
2023/07/28 15:13:32;;;;;;;;;;;;;;;;;;5083823;27;90203;-65
2023/07/28 15:15:57;;;;;;;;;;;;;;;;;;5077446;27;89136;-65
2023/07/28 15:18:23;;;;;;;;;;;;;;;;;;5074371;27;89618;-65
2023/07/28 15:20:48;;;;;;;;;;;;;;;;;;5079114;27;89644;-65
2023/07/28 15:23:13;;;;;;;;;;;;;;;;;;5078470;27;89863;-65
2023/07/28 15:25:45;;;;;;;;;;;;;;;;;;5080053;27;90604;-65
2023/07/28 15:28:11;;;;;;;;;;;;;;;;;;5075691;27;89032;-64
2023/07/28 15:30:36;;;;;;;;;;;;;;;;;;5080007;27;89637;-65
2023/07/28 15:33:02;;;;;;;;;;;;;;;;;;5079971;27;89434;-65
2023/07/28 15:35:27;;;;;;;;;;;;;;;;;;5078365;27;89021;-65
2023/07/28 15:37:53;;;;;;;;;;;;;;;;;;5077859;27;89542;-65
2023/07/28 15:40:18;;;;;;;;;;;;;;;;;;5083116;27;89366;-64
2023/07/28 15:42:43;;;;;;;;;;;;;;;;;;5076232;27;89112;-65
2023/07/28 15:45:09;;;;;;;;;;;;;;;;;;5079390;27;89741;-65
2023/07/28 15:47:35;;;;;;;;;;;;;;;;;;5085773;27;90272;-65
2023/07/28 15:50:01;;;;;;;;;;;;;;;;;;5075552;27;90618;-65
2023/07/28 15:52:26;;;;;;;;;;;;;;;;;;5077971;27;89272;-65
2023/07/28 15:54:51;;;;;;;;;;;;;;;;;;5077701;27;89511;-65
2023/07/28 15:57:16;;;;;;;;;;;;;;;;;;5080176;27;90512;-66
2023/07/28 15:59:44;;;;;;;;;;;;;;;;;;5072726;27;90388;-65
2023/07/28 16:02:10;;;;;;;;;;;;;;;;;;5075272;27;90156;-65
2023/07/28 16:04:37;;;;;;;;;;;;;;;;;;5077081;27;89548;-65
2023/07/28 16:07:03;;;;;;;;;;;;;;;;;;5080484;27;90322;-65
2023/07/28 16:09:28;;;;;;;;;;;;;;;;;;5083874;27;90540;-66
2023/07/28 16:11:53;;;;;;;;;;;;;;;;;;5071823;27;90426;-65
2023/07/28 16:14:19;;;;;;;;;;;;;;;;;;5075106;27;91384;-65
2023/07/28 16:16:44;;;;;;;;;;;;;;;;;;5074566;27;90371;-65
2023/07/28 16:19:09;;;;;;;;;;;;;;;;;;5079023;27;90691;-65
2023/07/28 16:21:34;;;;;;;;;;;;;;;;;;5078976;27;89784;-65
2023/07/28 16:24:00;;;;;;;;;;;;;;;;;;5072972;27;89356;-65
2023/07/28 16:26:25;;;;;;;;;;;;;;;;;;5071573;27;89596;-65
2023/07/28 16:28:50;;;;;;;;;;;;;;;;;;5070962;27;90236;-65
2023/07/28 16:31:15;;;;;;;;;;;;;;;;;;5078615;27;90870;-65
2023/07/28 16:33:40;;;;;;;;;;;;;;;;;;5077169;27;89208;-65
2023/07/28 16:36:06;;;;;;;;;;;;;;;;;;5074688;27;90844;-65
2023/07/28 16:38:31;;;;;;;;;;;;;;;;;;5072811;27;90202;-65
2023/07/28 16:40:56;;;;;;;;;;;;;;;;;;5073752;27;89749;-65